Current | Forecast
Updated: 5:30 PM CET on December 14, 2017
Observed at Barcelona, Spain
Temperature 15°C
Humidity 59%
Dew Point 7°C
Wind SSW at 9 km/h
Pressure 1012 hPa (Steady)
Conditions Partly Cloudy
Visibility 10.0 kilometers
UV 0 out of 16
Clouds (FEW) : 914 m
Yesterday's Maximum 13°C
Yesterday's Minimum 3°C approx.
Yesterday's Heating Degree Days 19 approx.
Sunrise8:09 AM CET
Sunset5:22 PM CET
Moon Rise4:16 AM CET
Moon Set3:25 PM CET
Moon PhaseMoon Phase
Waning Crescent
Raw METARMETAR LEBL 141630Z 20005KT 170V240 9999 FEW030 15/07 Q1012 NOSIG


Monday
. High: 77° F.
Tuesday
. High: 71° F.
Wednesday
. High: 75° F.
Thursday
. High: 69° F.
Friday
. High: 68° F.
Saturday
. High: 73° F.
Sunday
. High: 75° F.
Monday
. High: 75° F.

Click here for Marine Information
Scientific forecaster discussion (NWS)

Units: English | Metric

Find the Weather for any City, State or Zipcode, or Country:

U.S. State List | Severe Weather | Tropical Storms | Ski Conditions
United States | Canada | Central America | South America | Asia | Europe | Australia | Africa | Islands

Weather Underground

© Copyright 2017
The Weather Company, LLC